sensor_id;sensor_type;location;lat;lon;timestamp;pressure;altitude;pressure_sealevel;temperature;humidity
68654;BME280;55636;51.108;13.622;2022-10-13T00:00:53;100962.41;;;8.88;60.06
68654;BME280;55636;51.108;13.622;2022-10-13T00:01:55;100959.66;;;8.88;59.98
68654;BME280;55636;51.108;13.622;2022-10-13T00:03:01;100958.78;;;8.88;59.99
68654;BME280;55636;51.108;13.622;2022-10-13T00:04:03;100958.78;;;8.88;59.83
68654;BME280;55636;51.108;13.622;2022-10-13T00:05:06;100961.78;;;8.86;60.01
68654;BME280;55636;51.108;13.622;2022-10-13T00:06:09;100969.22;;;8.86;60.07
68654;BME280;55636;51.108;13.622;2022-10-13T00:07:12;100952.91;;;8.84;60.17
68654;BME280;55636;51.108;13.622;2022-10-13T00:08:17;100958.41;;;8.84;60.15
68654;BME280;55636;51.108;13.622;2022-10-13T00:09:20;100961.41;;;8.83;60.16
68654;BME280;55636;51.108;13.622;2022-10-13T00:10:23;100968.84;;;8.82;60.20
68654;BME280;55636;51.108;13.622;2022-10-13T00:11:28;100964.16;;;8.83;60.25
68654;BME280;55636;51.108;13.622;2022-10-13T00:12:34;100969.91;;;8.81;60.29
68654;BME280;55636;51.108;13.622;2022-10-13T00:13:39;100964.41;;;8.81;60.13
68654;BME280;55636;51.108;13.622;2022-10-13T00:14:41;100964.41;;;8.81;60.37
68654;BME280;55636;51.108;13.622;2022-10-13T00:15:45;100959.13;;;8.80;60.40
68654;BME280;55636;51.108;13.622;2022-10-13T00:16:47;100962.72;;;8.80;60.34
68654;BME280;55636;51.108;13.622;2022-10-13T00:17:49;100959.13;;;8.80;60.44
68654;BME280;55636;51.108;13.622;2022-10-13T00:18:52;100954.44;;;8.80;60.37
68654;BME280;55636;51.108;13.622;2022-10-13T00:19:54;100965.47;;;8.80;60.38
68654;BME280;55636;51.108;13.622;2022-10-13T00:20:57;100960.19;;;8.79;60.32
68654;BME280;55636;51.108;13.622;2022-10-13T00:22:02;100958.28;;;8.79;60.24
68654;BME280;55636;51.108;13.622;2022-10-13T00:23:05;100957.69;;;8.77;60.28
68654;BME280;55636;51.108;13.622;2022-10-13T00:24:09;100957.69;;;8.77;60.54
68654;BME280;55636;51.108;13.622;2022-10-13T00:25:13;100957.69;;;8.77;60.22
68654;BME280;55636;51.108;13.622;2022-10-13T00:26:16;100961.50;;;8.76;60.34
68654;BME280;55636;51.108;13.622;2022-10-13T00:27:19;100957.94;;;8.76;60.27
68654;BME280;55636;51.108;13.622;2022-10-13T00:28:21;100966.19;;;8.76;60.39
68654;BME280;55636;51.108;13.622;2022-10-13T00:29:23;100955.34;;;8.74;60.36
68654;BME280;55636;51.108;13.622;2022-10-13T00:30:26;100957.28;;;8.74;60.41
68654;BME280;55636;51.108;13.622;2022-10-13T00:31:30;100960.84;;;8.74;60.50
68654;BME280;55636;51.108;13.622;2022-10-13T00:32:32;100953.94;;;8.71;60.44
68654;BME280;55636;51.108;13.622;2022-10-13T00:33:39;100961.09;;;8.72;60.66
68654;BME280;55636;51.108;13.622;2022-10-13T00:34:41;100965.78;;;8.72;60.45
68654;BME280;55636;51.108;13.622;2022-10-13T00:35:46;100963.84;;;8.72;60.51
68654;BME280;55636;51.108;13.622;2022-10-13T00:36:48;100961.34;;;8.71;60.46
68654;BME280;55636;51.108;13.622;2022-10-13T00:37:50;100958.59;;;8.71;60.64
68654;BME280;55636;51.108;13.622;2022-10-13T00:38:55;100960.75;;;8.69;60.65
68654;BME280;55636;51.108;13.622;2022-10-13T00:39:58;100966.25;;;8.69;60.77
68654;BME280;55636;51.108;13.622;2022-10-13T00:41:00;100957.13;;;8.68;60.72
68654;BME280;55636;51.108;13.622;2022-10-13T00:42:03;100955.44;;;8.67;60.69
68654;BME280;55636;51.108;13.622;2022-10-13T00:43:19;100954.63;;;8.67;60.77
68654;BME280;55636;51.108;13.622;2022-10-13T00:46:01;100952.94;;;8.66;60.63
68654;BME280;55636;51.108;13.622;2022-10-13T00:47:04;100961.19;;;8.66;60.70
68654;BME280;55636;51.108;13.622;2022-10-13T00:48:06;100949.59;;;8.64;60.73
68654;BME280;55636;51.108;13.622;2022-10-13T00:49:13;100953.41;;;8.63;60.97
68654;BME280;55636;51.108;13.622;2022-10-13T00:50:24;100954.47;;;8.62;61.03
68654;BME280;55636;51.108;13.622;2022-10-13T00:51:32;100953.66;;;8.61;60.88
68654;BME280;55636;51.108;13.622;2022-10-13T00:52:38;100951.09;;;8.60;60.89
68654;BME280;55636;51.108;13.622;2022-10-13T00:53:42;100955.78;;;8.59;60.80
68654;BME280;55636;51.108;13.622;2022-10-13T00:54:47;100948.59;;;8.58;60.88
68654;BME280;55636;51.108;13.622;2022-10-13T00:55:52;100946.06;;;8.57;60.93
68654;BME280;55636;51.108;13.622;2022-10-13T00:56:54;100947.13;;;8.55;61.23
68654;BME280;55636;51.108;13.622;2022-10-13T00:57:58;100946.31;;;8.55;61.27
68654;BME280;55636;51.108;13.622;2022-10-13T00:59:14;100944.63;;;8.54;61.31
68654;BME280;55636;51.108;13.622;2022-10-13T01:00:23;100949.88;;;8.55;61.24
68654;BME280;55636;51.108;13.622;2022-10-13T01:01:25;100944.63;;;8.54;61.20
68654;BME280;55636;51.108;13.622;2022-10-13T01:02:31;100952.06;;;8.53;61.51
68654;BME280;55636;51.108;13.622;2022-10-13T01:03:36;100948.44;;;8.53;61.40
68654;BME280;55636;51.108;13.622;2022-10-13T01:04:42;100944.84;;;8.52;61.48
68654;BME280;55636;51.108;13.622;2022-10-13T01:05:46;100946.56;;;8.53;61.33
68654;BME280;55636;51.108;13.622;2022-10-13T01:06:49;100944.84;;;8.52;61.21
68654;BME280;55636;51.108;13.622;2022-10-13T01:07:57;100948.69;;;8.51;61.33
68654;BME280;55636;51.108;13.622;2022-10-13T01:09:00;100945.09;;;8.51;61.46
68654;BME280;55636;51.108;13.622;2022-10-13T01:10:03;100959.69;;;8.51;61.42
68654;BME280;55636;51.108;13.622;2022-10-13T01:12:42;100953.34;;;8.51;61.55
68654;BME280;55636;51.108;13.622;2022-10-13T01:13:59;100946.16;;;8.50;61.52
68654;BME280;55636;51.108;13.622;2022-10-13T01:15:11;100947.00;;;8.50;61.73
68654;BME280;55636;51.108;13.622;2022-10-13T01:17:38;100946.16;;;8.50;61.72
68654;BME280;55636;51.108;13.622;2022-10-13T01:22:07;100940.66;;;8.50;61.79
68654;BME280;55636;51.108;13.622;2022-10-13T01:27:07;100938.72;;;8.50;62.03
68654;BME280;55636;51.108;13.622;2022-10-13T01:30:20;100931.34;;;8.51;61.97
68654;BME280;55636;51.108;13.622;2022-10-13T01:31:47;100941.25;;;8.52;62.01
68654;BME280;55636;51.108;13.622;2022-10-13T01:36:50;100931.09;;;8.52;62.10
68654;BME280;55636;51.108;13.622;2022-10-13T01:39:29;100930.03;;;8.53;62.03
68654;BME280;55636;51.108;13.622;2022-10-13T01:40:46;100928.09;;;8.54;61.97
68654;BME280;55636;51.108;13.622;2022-10-13T01:41:54;100925.34;;;8.54;62.02
68654;BME280;55636;51.108;13.622;2022-10-13T01:43:09;100932.53;;;8.55;61.98
68654;BME280;55636;51.108;13.622;2022-10-13T01:44:33;100924.28;;;8.55;61.93
68654;BME280;55636;51.108;13.622;2022-10-13T01:45:46;100922.34;;;8.55;62.00
68654;BME280;55636;51.108;13.622;2022-10-13T01:46:51;100921.28;;;8.57;62.03
68654;BME280;55636;51.108;13.622;2022-10-13T01:47:55;100924.03;;;8.57;62.07
68654;BME280;55636;51.108;13.622;2022-10-13T01:49:01;100926.78;;;8.57;62.00
68654;BME280;55636;51.108;13.622;2022-10-13T01:50:06;100915.78;;;8.57;62.11
68654;BME280;55636;51.108;13.622;2022-10-13T01:51:17;100911.09;;;8.57;62.17
68654;BME280;55636;51.108;13.622;2022-10-13T01:52:24;100922.13;;;8.57;62.11
68654;BME280;55636;51.108;13.622;2022-10-13T01:53:27;100919.34;;;8.57;62.13
68654;BME280;55636;51.108;13.622;2022-10-13T01:54:31;100917.72;;;8.56;62.13
68654;BME280;55636;51.108;13.622;2022-10-13T01:55:34;100918.53;;;8.57;62.29
68654;BME280;55636;51.108;13.622;2022-10-13T01:56:37;100920.22;;;8.58;62.11
68654;BME280;55636;51.108;13.622;2022-10-13T01:57:40;100917.47;;;8.58;62.04
68654;BME280;55636;51.108;13.622;2022-10-13T01:58:43;100911.97;;;8.58;62.22
68654;BME280;55636;51.108;13.622;2022-10-13T01:59:46;100915.28;;;8.60;62.29
68654;BME280;55636;51.108;13.622;2022-10-13T02:02:27;100912.34;;;8.61;62.18
68654;BME280;55636;51.108;13.622;2022-10-13T02:05:19;100910.41;;;8.62;62.09
68654;BME280;55636;51.108;13.622;2022-10-13T02:06:33;100913.78;;;8.64;62.08
68654;BME280;55636;51.108;13.622;2022-10-13T02:07:44;100904.91;;;8.62;62.17
68654;BME280;55636;51.108;13.622;2022-10-13T02:09:02;100911.25;;;8.62;62.16
68654;BME280;55636;51.108;13.622;2022-10-13T02:11:45;100904.06;;;8.61;62.22
68654;BME280;55636;51.108;13.622;2022-10-13T02:12:58;100901.91;;;8.63;62.22
68654;BME280;55636;51.108;13.622;2022-10-13T02:14:13;100904.91;;;8.62;62.16
68654;BME280;55636;51.108;13.622;2022-10-13T02:15:21;100908.47;;;8.62;62.29
68654;BME280;55636;51.108;13.622;2022-10-13T02:16:29;100905.53;;;8.64;62.02
68654;BME280;55636;51.108;13.622;2022-10-13T02:17:32;100901.91;;;8.63;61.98
68654;BME280;55636;51.108;13.622;2022-10-13T02:18:37;100905.53;;;8.64;62.18
68654;BME280;55636;51.108;13.622;2022-10-13T02:19:40;100907.41;;;8.63;62.24
68654;BME280;55636;51.108;13.622;2022-10-13T02:20:43;100904.66;;;8.63;62.24
68654;BME280;55636;51.108;13.622;2022-10-13T02:21:47;100906.34;;;8.64;62.22
68654;BME280;55636;51.108;13.622;2022-10-13T02:22:53;100908.28;;;8.64;62.26
68654;BME280;55636;51.108;13.622;2022-10-13T02:23:58;100905.53;;;8.64;62.29
68654;BME280;55636;51.108;13.622;2022-10-13T02:25:01;100906.34;;;8.64;62.15
68654;BME280;55636;51.108;13.622;2022-10-13T02:26:03;100905.28;;;8.65;62.25
68654;BME280;55636;51.108;13.622;2022-10-13T02:27:07;100899.78;;;8.65;62.23
68654;BME280;55636;51.108;13.622;2022-10-13T02:28:12;100899.78;;;8.65;62.20
68654;BME280;55636;51.108;13.622;2022-10-13T02:29:18;100902.53;;;8.65;62.25
68654;BME280;55636;51.108;13.622;2022-10-13T02:30:23;100901.47;;;8.66;62.29
68654;BME280;55636;51.108;13.622;2022-10-13T02:31:26;100897.84;;;8.66;62.28
68654;BME280;55636;51.108;13.622;2022-10-13T02:32:28;100903.13;;;8.67;62.23
68654;BME280;55636;51.108;13.622;2022-10-13T02:33:30;100899.53;;;8.67;62.20
68654;BME280;55636;51.108;13.622;2022-10-13T02:34:33;100900.34;;;8.67;62.32
68654;BME280;55636;51.108;13.622;2022-10-13T02:35:35;100901.22;;;8.68;62.23
68654;BME280;55636;51.108;13.622;2022-10-13T02:36:37;100898.22;;;8.69;62.19
68654;BME280;55636;51.108;13.622;2022-10-13T02:37:41;100896.53;;;8.68;62.12
68654;BME280;55636;51.108;13.622;2022-10-13T02:38:43;100898.22;;;8.69;62.17
68654;BME280;55636;51.108;13.622;2022-10-13T02:39:46;100897.41;;;8.69;62.20
68654;BME280;55636;51.108;13.622;2022-10-13T02:40:51;100897.41;;;8.69;62.18
68654;BME280;55636;51.108;13.622;2022-10-13T02:41:55;100898.84;;;8.71;62.18
68654;BME280;55636;51.108;13.622;2022-10-13T02:42:57;100897.97;;;8.71;61.98
68654;BME280;55636;51.108;13.622;2022-10-13T02:43:59;100892.47;;;8.71;62.12
68654;BME280;55636;51.108;13.622;2022-10-13T02:45:08;100897.97;;;8.71;62.03
68654;BME280;55636;51.108;13.622;2022-10-13T02:46:11;100904.34;;;8.71;62.18
68654;BME280;55636;51.108;13.622;2022-10-13T02:47:16;100906.25;;;8.71;62.09
68654;BME280;55636;51.108;13.622;2022-10-13T02:48:18;100898.84;;;8.71;61.99
68654;BME280;55636;51.108;13.622;2022-10-13T02:49:21;100899.44;;;8.74;62.03
68654;BME280;55636;51.108;13.622;2022-10-13T02:50:23;100888.66;;;8.72;62.05
68654;BME280;55636;51.108;13.622;2022-10-13T02:51:25;100900.50;;;8.72;61.92
68654;BME280;55636;51.108;13.622;2022-10-13T02:52:28;100893.91;;;8.74;62.01
68654;BME280;55636;51.108;13.622;2022-10-13T02:53:32;100898.84;;;8.71;61.98
68654;BME280;55636;51.108;13.622;2022-10-13T02:54:34;100900.50;;;8.72;62.08
68654;BME280;55636;51.108;13.622;2022-10-13T02:55:36;100896.66;;;8.74;62.00
68654;BME280;55636;51.108;13.622;2022-10-13T02:56:39;100897.50;;;8.74;61.83
68654;BME280;55636;51.108;13.622;2022-10-13T02:57:41;100903.88;;;8.75;62.03
68654;BME280;55636;51.108;13.622;2022-10-13T02:58:43;100894.75;;;8.74;62.01
68654;BME280;55636;51.108;13.622;2022-10-13T02:59:45;100893.72;;;8.75;62.07
68654;BME280;55636;51.108;13.622;2022-10-13T03:00:48;100894.75;;;8.74;61.78
68654;BME280;55636;51.108;13.622;2022-10-13T03:01:50;100890.94;;;8.75;61.92
68654;BME280;55636;51.108;13.622;2022-10-13T03:02:52;100892.84;;;8.75;61.89
68654;BME280;55636;51.108;13.622;2022-10-13T03:03:55;100889.22;;;8.74;61.90
68654;BME280;55636;51.108;13.622;2022-10-13T03:04:57;100893.72;;;8.75;61.97
68654;BME280;55636;51.108;13.622;2022-10-13T03:06:02;100888.19;;;8.75;61.85
68654;BME280;55636;51.108;13.622;2022-10-13T03:07:04;100886.47;;;8.74;61.86
68654;BME280;55636;51.108;13.622;2022-10-13T03:08:07;100887.34;;;8.75;61.78
68654;BME280;55636;51.108;13.622;2022-10-13T03:09:09;100883.72;;;8.74;61.89
68654;BME280;55636;51.108;13.622;2022-10-13T03:10:12;100876.31;;;8.75;61.86
68654;BME280;55636;51.108;13.622;2022-10-13T03:11:14;100882.06;;;8.73;61.84
68654;BME280;55636;51.108;13.622;2022-10-13T03:12:17;100877.63;;;8.72;61.95
68654;BME280;55636;51.108;13.622;2022-10-13T03:13:20;100876.31;;;8.75;61.85
68654;BME280;55636;51.108;13.622;2022-10-13T03:14:22;100883.97;;;8.72;61.95
68654;BME280;55636;51.108;13.622;2022-10-13T03:15:24;100876.81;;;8.71;61.88
68654;BME280;55636;51.108;13.622;2022-10-13T03:16:29;100879.31;;;8.73;61.85
68654;BME280;55636;51.108;13.622;2022-10-13T03:17:31;100877.88;;;8.70;61.90
68654;BME280;55636;51.108;13.622;2022-10-13T03:18:34;100884.44;;;8.69;61.92
68654;BME280;55636;51.108;13.622;2022-10-13T03:19:36;100881.06;;;8.67;62.03
68654;BME280;55636;51.108;13.622;2022-10-13T03:20:38;100876.44;;;8.68;61.90
68654;BME280;55636;51.108;13.622;2022-10-13T03:21:41;100879.19;;;8.68;61.94
68654;BME280;55636;51.108;13.622;2022-10-13T03:22:43;100880.00;;;8.68;61.94
68654;BME280;55636;51.108;13.622;2022-10-13T03:23:50;100878.31;;;8.67;62.01
68654;BME280;55636;51.108;13.622;2022-10-13T03:24:56;100878.13;;;8.69;61.94
68654;BME280;55636;51.108;13.622;2022-10-13T03:25:59;100876.44;;;8.68;61.94
68654;BME280;55636;51.108;13.622;2022-10-13T03:27:01;100875.56;;;8.67;62.03
68654;BME280;55636;51.108;13.622;2022-10-13T03:28:03;100878.13;;;8.69;61.92
68654;BME280;55636;51.108;13.622;2022-10-13T03:29:05;100877.50;;;8.67;62.00
68654;BME280;55636;51.108;13.622;2022-10-13T03:30:08;100882.19;;;8.66;62.07
68654;BME280;55636;51.108;13.622;2022-10-13T03:31:13;100878.56;;;8.66;62.02
68654;BME280;55636;51.108;13.622;2022-10-13T03:32:15;100881.31;;;8.66;62.16
68654;BME280;55636;51.108;13.622;2022-10-13T03:33:18;100877.75;;;8.65;62.06
68654;BME280;55636;51.108;13.622;2022-10-13T03:34:21;100885.75;;;8.67;62.05
68654;BME280;55636;51.108;13.622;2022-10-13T03:35:23;100879.63;;;8.65;61.90
68654;BME280;55636;51.108;13.622;2022-10-13T03:36:25;100882.38;;;8.65;61.90
68654;BME280;55636;51.108;13.622;2022-10-13T03:37:28;100882.38;;;8.65;62.09
68654;BME280;55636;51.108;13.622;2022-10-13T03:38:33;100876.88;;;8.65;61.94
68654;BME280;55636;51.108;13.622;2022-10-13T03:39:36;100872.47;;;8.64;62.17
68654;BME280;55636;51.108;13.622;2022-10-13T03:40:39;100867.16;;;8.62;62.01
68654;BME280;55636;51.108;13.622;2022-10-13T03:41:42;100869.94;;;8.62;62.10
68654;BME280;55636;51.108;13.622;2022-10-13T03:42:44;100871.84;;;8.62;62.03
68654;BME280;55636;51.108;13.622;2022-10-13T03:43:46;100869.94;;;8.62;62.09
68654;BME280;55636;51.108;13.622;2022-10-13T03:44:49;100874.84;;;8.60;62.11
68654;BME280;55636;51.108;13.622;2022-10-13T03:45:58;100878.44;;;8.61;62.01
68654;BME280;55636;51.108;13.622;2022-10-13T03:47:01;100879.50;;;8.60;62.14
68654;BME280;55636;51.108;13.622;2022-10-13T03:48:03;100871.22;;;8.60;62.10
68654;BME280;55636;51.108;13.622;2022-10-13T03:49:09;100882.25;;;8.60;62.13
68654;BME280;55636;51.108;13.622;2022-10-13T03:50:12;100873.41;;;8.58;62.25
68654;BME280;55636;51.108;13.622;2022-10-13T03:51:17;100873.41;;;8.58;62.23
68654;BME280;55636;51.108;13.622;2022-10-13T03:52:22;100881.66;;;8.58;62.15
68654;BME280;55636;51.108;13.622;2022-10-13T03:53:24;100872.53;;;8.57;62.15
68654;BME280;55636;51.108;13.622;2022-10-13T03:54:27;100880.81;;;8.57;62.26
68654;BME280;55636;51.108;13.622;2022-10-13T03:55:29;100872.53;;;8.57;62.23
68654;BME280;55636;51.108;13.622;2022-10-13T03:56:31;100879.97;;;8.57;62.33
68654;BME280;55636;51.108;13.622;2022-10-13T03:57:33;100883.22;;;8.53;62.38
68654;BME280;55636;51.108;13.622;2022-10-13T03:58:36;100875.78;;;8.54;62.31
68654;BME280;55636;51.108;13.622;2022-10-13T03:59:39;100873.03;;;8.54;62.34
68654;BME280;55636;51.108;13.622;2022-10-13T04:00:42;100871.34;;;8.53;62.28
68654;BME280;55636;51.108;13.622;2022-10-13T04:01:44;100877.72;;;8.53;62.26
68654;BME280;55636;51.108;13.622;2022-10-13T04:02:48;100871.34;;;8.53;62.39
68654;BME280;55636;51.108;13.622;2022-10-13T04:03:54;100871.09;;;8.54;62.36
68654;BME280;55636;51.108;13.622;2022-10-13T04:04:57;100874.09;;;8.53;62.31
68654;BME280;55636;51.108;13.622;2022-10-13T04:06:03;100870.50;;;8.52;62.33
68654;BME280;55636;51.108;13.622;2022-10-13T04:07:06;100867.75;;;8.52;62.38
68654;BME280;55636;51.108;13.622;2022-10-13T04:08:08;100868.59;;;8.53;62.26
68654;BME280;55636;51.108;13.622;2022-10-13T04:09:11;100866.06;;;8.51;62.29
68654;BME280;55636;51.108;13.622;2022-10-13T04:10:14;100865.25;;;8.51;62.40
68654;BME280;55636;51.108;13.622;2022-10-13T04:11:17;100872.41;;;8.52;62.41
68654;BME280;55636;51.108;13.622;2022-10-13T04:12:24;100866.06;;;8.51;62.28
68654;BME280;55636;51.108;13.622;2022-10-13T04:13:27;100863.31;;;8.51;62.30
68654;BME280;55636;51.108;13.622;2022-10-13T04:14:29;100869.91;;;8.50;62.47
68654;BME280;55636;51.108;13.622;2022-10-13T04:15:39;100867.13;;;8.50;62.42
68654;BME280;55636;51.108;13.622;2022-10-13T04:16:41;100858.06;;;8.50;62.50
68654;BME280;55636;51.108;13.622;2022-10-13T04:17:43;100859.97;;;8.49;62.37
68654;BME280;55636;51.108;13.622;2022-10-13T04:18:50;100858.28;;;8.48;62.71
68654;BME280;55636;51.108;13.622;2022-10-13T04:19:53;100862.72;;;8.49;62.50
68654;BME280;55636;51.108;13.622;2022-10-13T04:20:55;100861.63;;;8.50;62.45
68654;BME280;55636;51.108;13.622;2022-10-13T04:21:57;100861.88;;;8.49;62.49
68654;BME280;55636;51.108;13.622;2022-10-13T04:23:00;100864.38;;;8.50;62.44
68654;BME280;55636;51.108;13.622;2022-10-13T04:24:04;100862.72;;;8.49;62.50
68654;BME280;55636;51.108;13.622;2022-10-13T04:25:07;100863.78;;;8.48;62.57
68654;BME280;55636;51.108;13.622;2022-10-13T04:26:20;100861.28;;;8.47;62.67
68654;BME280;55636;51.108;13.622;2022-10-13T04:27:23;100865.09;;;8.46;62.81
68654;BME280;55636;51.108;13.622;2022-10-13T04:28:25;100859.84;;;8.44;62.72
68654;BME280;55636;51.108;13.622;2022-10-13T04:29:27;100860.66;;;8.45;62.78
68654;BME280;55636;51.108;13.622;2022-10-13T04:30:32;100864.25;;;8.45;62.72
68654;BME280;55636;51.108;13.622;2022-10-13T04:31:34;100862.59;;;8.44;62.71
68654;BME280;55636;51.108;13.622;2022-10-13T04:32:38;100858.16;;;8.43;62.80
68654;BME280;55636;51.108;13.622;2022-10-13T04:33:42;100860.91;;;8.43;62.86
68654;BME280;55636;51.108;13.622;2022-10-13T04:34:45;100862.59;;;8.44;62.68
68654;BME280;55636;51.108;13.622;2022-10-13T04:35:49;100860.03;;;8.43;62.83
68654;BME280;55636;51.108;13.622;2022-10-13T04:36:52;100863.66;;;8.43;62.79
68654;BME280;55636;51.108;13.622;2022-10-13T04:37:54;100859.22;;;8.42;62.69
68654;BME280;55636;51.108;13.622;2022-10-13T04:38:58;100857.28;;;8.43;62.90
68654;BME280;55636;51.108;13.622;2022-10-13T04:40:01;100862.81;;;8.43;62.92
68654;BME280;55636;51.108;13.622;2022-10-13T04:41:04;100855.63;;;8.42;63.10
68654;BME280;55636;51.108;13.622;2022-10-13T04:42:07;100861.34;;;8.40;62.79
68654;BME280;55636;51.108;13.622;2022-10-13T04:43:12;100863.91;;;8.42;62.88
68654;BME280;55636;51.108;13.622;2022-10-13T04:44:14;100859.69;;;8.39;62.95
68654;BME280;55636;51.108;13.622;2022-10-13T04:45:16;100860.53;;;8.39;62.90
68654;BME280;55636;51.108;13.622;2022-10-13T04:46:25;100870.72;;;8.39;63.20
68654;BME280;55636;51.108;13.622;2022-10-13T04:47:30;100859.69;;;8.39;63.02
68654;BME280;55636;51.108;13.622;2022-10-13T04:48:38;100858.00;;;8.38;63.11
68654;BME280;55636;51.108;13.622;2022-10-13T04:49:40;100850.59;;;8.38;63.09
68654;BME280;55636;51.108;13.622;2022-10-13T04:50:42;100852.25;;;8.39;62.88
68654;BME280;55636;51.108;13.622;2022-10-13T04:51:45;100852.25;;;8.39;63.10
68654;BME280;55636;51.108;13.622;2022-10-13T04:52:47;100855.25;;;8.38;63.13
68654;BME280;55636;51.108;13.622;2022-10-13T04:53:56;100855.25;;;8.38;63.12
68654;BME280;55636;51.108;13.622;2022-10-13T04:55:02;100852.50;;;8.38;63.05
68654;BME280;55636;51.108;13.622;2022-10-13T04:56:08;100857.41;;;8.36;63.24
68654;BME280;55636;51.108;13.622;2022-10-13T04:57:12;100849.13;;;8.36;63.22
68654;BME280;55636;51.108;13.622;2022-10-13T04:58:14;100856.31;;;8.37;63.12
68654;BME280;55636;51.108;13.622;2022-10-13T04:59:16;100851.06;;;8.35;63.24
68654;BME280;55636;51.108;13.622;2022-10-13T05:00:19;100850.81;;;8.37;63.31
68654;BME280;55636;51.108;13.622;2022-10-13T05:01:23;100854.63;;;8.36;63.18
68654;BME280;55636;51.108;13.622;2022-10-13T05:02:25;100846.63;;;8.34;63.15
68654;BME280;55636;51.108;13.622;2022-10-13T05:03:30;100847.44;;;8.35;63.36
68654;BME280;55636;51.108;13.622;2022-10-13T05:04:32;100843.88;;;8.34;63.30
68654;BME280;55636;51.108;13.622;2022-10-13T05:05:34;100845.56;;;8.35;63.22
68654;BME280;55636;51.108;13.622;2022-10-13T05:06:39;100844.69;;;8.35;63.38
68654;BME280;55636;51.108;13.622;2022-10-13T05:08:02;100844.69;;;8.35;63.19
68654;BME280;55636;51.108;13.622;2022-10-13T05:09:04;100837.53;;;8.34;63.34
68654;BME280;55636;51.108;13.622;2022-10-13T05:10:07;100841.13;;;8.34;63.36
68654;BME280;55636;51.108;13.622;2022-10-13T05:11:10;100834.53;;;8.35;63.33
68654;BME280;55636;51.108;13.622;2022-10-13T05:12:12;100835.38;;;8.36;63.38
68654;BME280;55636;51.108;13.622;2022-10-13T05:13:14;100843.03;;;8.34;63.43
68654;BME280;55636;51.108;13.622;2022-10-13T05:14:17;100835.84;;;8.33;63.53
68654;BME280;55636;51.108;13.622;2022-10-13T05:15:19;100836.69;;;8.33;63.58
68654;BME280;55636;51.108;13.622;2022-10-13T05:16:22;100844.94;;;8.33;63.41
68654;BME280;55636;51.108;13.622;2022-10-13T05:17:24;100842.41;;;8.32;63.49
68654;BME280;55636;51.108;13.622;2022-10-13T05:18:26;100843.03;;;8.34;63.54
68654;BME280;55636;51.108;13.622;2022-10-13T05:19:30;100847.44;;;8.35;63.41
68654;BME280;55636;51.108;13.622;2022-10-13T05:20:32;100838.13;;;8.36;63.29
68654;BME280;55636;51.108;13.622;2022-10-13T05:21:34;100842.81;;;8.35;63.43
68654;BME280;55636;51.108;13.622;2022-10-13T05:22:36;100835.38;;;8.36;63.54
68654;BME280;55636;51.108;13.622;2022-10-13T05:23:39;100840.88;;;8.36;63.40
68654;BME280;55636;51.108;13.622;2022-10-13T05:24:41;100835.38;;;8.36;63.40
68654;BME280;55636;51.108;13.622;2022-10-13T05:25:43;100836.22;;;8.36;63.54
68654;BME280;55636;51.108;13.622;2022-10-13T05:26:48;100834.06;;;8.38;63.36
68654;BME280;55636;51.108;13.622;2022-10-13T05:27:50;100838.75;;;8.38;63.52
68654;BME280;55636;51.108;13.622;2022-10-13T05:29:00;100842.09;;;8.40;63.35
68654;BME280;55636;51.108;13.622;2022-10-13T05:30:05;100842.94;;;8.41;63.41
68654;BME280;55636;51.108;13.622;2022-10-13T05:31:14;100844.00;;;8.39;63.52
68654;BME280;55636;51.108;13.622;2022-10-13T05:32:16;100842.09;;;8.40;63.34
68654;BME280;55636;51.108;13.622;2022-10-13T05:33:19;100842.94;;;8.41;63.45
68654;BME280;55636;51.108;13.622;2022-10-13T05:34:21;100839.13;;;8.42;63.33
68654;BME280;55636;51.108;13.622;2022-10-13T05:35:24;100835.50;;;8.41;63.50
68654;BME280;55636;51.108;13.622;2022-10-13T05:36:28;100831.06;;;8.40;63.26
68654;BME280;55636;51.108;13.622;2022-10-13T05:37:31;100829.19;;;8.41;63.58
68654;BME280;55636;51.108;13.622;2022-10-13T05:38:34;100839.94;;;8.42;63.55
68654;BME280;55636;51.108;13.622;2022-10-13T05:39:36;100831.69;;;8.42;63.42
68654;BME280;55636;51.108;13.622;2022-10-13T05:40:41;100840.78;;;8.43;63.37
68654;BME280;55636;51.108;13.622;2022-10-13T05:41:43;100830.63;;;8.43;63.38
68654;BME280;55636;51.108;13.622;2022-10-13T05:42:54;100830.63;;;8.43;63.38
68654;BME280;55636;51.108;13.622;2022-10-13T05:43:59;100830.63;;;8.43;63.50
68654;BME280;55636;51.108;13.622;2022-10-13T05:45:03;100825.13;;;8.43;63.41
68654;BME280;55636;51.108;13.622;2022-10-13T05:46:06;100833.97;;;8.45;63.40
68654;BME280;55636;51.108;13.622;2022-10-13T05:47:10;100830.38;;;8.45;63.43
68654;BME280;55636;51.108;13.622;2022-10-13T05:48:15;100828.44;;;8.45;63.39
68654;BME280;55636;51.108;13.622;2022-10-13T05:49:17;100831.00;;;8.47;63.32
68654;BME280;55636;51.108;13.622;2022-10-13T05:50:19;100831.59;;;8.49;63.26
68654;BME280;55636;51.108;13.622;2022-10-13T05:51:29;100828.81;;;8.49;63.31
68654;BME280;55636;51.108;13.622;2022-10-13T05:52:34;100830.13;;;8.46;63.50
68654;BME280;55636;51.108;13.622;2022-10-13T05:53:43;100828.81;;;8.49;63.27
68654;BME280;55636;51.108;13.622;2022-10-13T05:54:55;100825.25;;;8.48;63.37
68654;BME280;55636;51.108;13.622;2022-10-13T05:56:06;100829.44;;;8.51;63.28
68654;BME280;55636;51.108;13.622;2022-10-13T05:57:25;100835.19;;;8.49;63.27
68654;BME280;55636;51.108;13.622;2022-10-13T05:58:33;100836.03;;;8.50;63.45
68654;BME280;55636;51.108;13.622;2022-10-13T05:59:41;100832.19;;;8.51;63.33
68654;BME280;55636;51.108;13.622;2022-10-13T06:00:44;100832.19;;;8.51;63.17
68654;BME280;55636;51.108;13.622;2022-10-13T06:01:46;100831.09;;;8.52;63.17